createdAt,value
2022-07-29T00:01:37.940Z,5.00
2022-07-29T00:04:24.420Z,4.62
2022-07-29T00:07:10.871Z,7.37
2022-07-29T00:09:59.406Z,4.55
2022-07-29T00:12:45.637Z,5.35
2022-07-29T00:15:33.445Z,7.22
2022-07-29T00:18:19.617Z,5.07
2022-07-29T00:21:06.002Z,7.50
2022-07-29T00:23:52.361Z,4.95
2022-07-29T00:26:38.578Z,7.28
2022-07-29T00:29:34.196Z,6.57
2022-07-29T00:32:21.283Z,6.28
2022-07-29T00:35:26.706Z,8.02
2022-07-29T00:38:15.081Z,6.57
2022-07-29T00:41:01.050Z,6.30
2022-07-29T00:43:47.427Z,7.00
2022-07-29T00:46:33.765Z,6.72
2022-07-29T00:49:20.221Z,6.90
2022-07-29T00:52:07.136Z,6.05
2022-07-29T00:54:53.627Z,4.65
2022-07-29T00:57:41.432Z,5.85
2022-07-29T01:00:29.287Z,7.32
2022-07-29T01:03:15.703Z,5.07
2022-07-29T01:06:02.347Z,6.50
2022-07-29T01:08:49.309Z,6.70
2022-07-29T01:11:37.108Z,6.10
2022-07-29T01:14:24.172Z,6.82
2022-07-29T01:17:26.705Z,8.73
2022-07-29T01:20:33.779Z,8.60
2022-07-29T01:23:29.467Z,6.70
2022-07-29T01:26:49.215Z,7.55
2022-07-29T01:29:42.890Z,7.93
2022-07-29T01:32:37.645Z,7.50
2022-07-29T01:35:27.020Z,4.90
2022-07-29T01:38:25.979Z,6.28
2022-07-29T01:41:16.548Z,4.90
2022-07-29T01:44:21.623Z,5.83
2022-07-29T01:47:13.907Z,5.57
2022-07-29T01:50:01.439Z,5.03
2022-07-29T01:53:00.434Z,7.00
2022-07-29T01:55:47.163Z,5.65
2022-07-29T01:58:33.637Z,6.35
2022-07-29T02:01:21.374Z,6.18
2022-07-29T02:04:10.811Z,6.05
2022-07-29T02:07:00.218Z,7.28
2022-07-29T02:09:48.450Z,6.87
2022-07-29T02:12:36.659Z,6.95
2022-07-29T02:15:25.114Z,4.75
2022-07-29T02:18:18.923Z,7.25
2022-07-29T02:21:06.149Z,6.05
2022-07-29T02:24:02.678Z,6.62
2022-07-29T02:26:50.818Z,9.45
2022-07-29T02:29:38.419Z,5.07
2022-07-29T02:32:25.800Z,8.82
2022-07-29T02:35:14.395Z,6.90
2022-07-29T02:38:19.489Z,5.90
2022-07-29T02:41:12.324Z,5.57
2022-07-29T02:44:03.939Z,9.63
2022-07-29T02:47:00.503Z,4.93
2022-07-29T02:49:54.464Z,7.05
2022-07-29T02:52:44.670Z,5.40
2022-07-29T02:55:58.087Z,7.10
2022-07-29T02:58:49.090Z,5.72
2022-07-29T03:01:36.150Z,6.07
2022-07-29T03:04:24.051Z,8.23
2022-07-29T03:07:12.260Z,5.15
2022-07-29T03:09:58.657Z,5.20
2022-07-29T03:12:45.421Z,8.13
2022-07-29T03:15:32.059Z,6.87
2022-07-29T03:18:18.663Z,8.48
2022-07-29T03:21:05.106Z,5.03
2022-07-29T03:23:52.055Z,7.12
2022-07-29T03:26:38.323Z,7.43
2022-07-29T03:29:25.238Z,7.00
2022-07-29T03:32:23.741Z,6.90
2022-07-29T03:35:11.905Z,7.35
2022-07-29T03:37:57.929Z,7.62
2022-07-29T03:40:49.961Z,6.80
2022-07-29T03:43:39.079Z,7.78
2022-07-29T03:46:37.037Z,7.82
2022-07-29T03:49:24.912Z,6.57
2022-07-29T03:52:11.907Z,6.15
2022-07-29T03:54:57.946Z,7.78
2022-07-29T03:57:45.871Z,5.65
2022-07-29T04:00:32.994Z,5.45
2022-07-29T04:03:19.250Z,6.12
2022-07-29T04:06:07.478Z,7.50
2022-07-29T04:08:54.207Z,6.47
2022-07-29T04:12:02.587Z,5.80
2022-07-29T04:14:48.222Z,8.40
2022-07-29T04:17:34.879Z,7.15
2022-07-29T04:20:21.655Z,6.53
2022-07-29T04:23:07.994Z,6.78
2022-07-29T04:25:54.871Z,8.63
2022-07-29T04:28:41.460Z,7.07
2022-07-29T04:31:28.725Z,8.35
2022-07-29T04:34:14.825Z,9.23
2022-07-29T04:37:01.730Z,6.95
2022-07-29T04:39:48.076Z,8.85
2022-07-29T04:42:34.308Z,7.80
2022-07-29T04:45:30.223Z,5.82
2022-07-29T04:48:16.657Z,8.73
2022-07-29T04:51:03.127Z,6.47
2022-07-29T04:53:49.312Z,8.38
2022-07-29T04:56:35.781Z,6.55
2022-07-29T04:59:22.143Z,7.57
2022-07-29T05:02:08.410Z,6.82
2022-07-29T05:04:54.732Z,8.82
2022-07-29T05:07:41.467Z,6.45
2022-07-29T05:10:28.171Z,9.52
2022-07-29T05:13:14.494Z,10.90
2022-07-29T05:16:00.894Z,6.57
2022-07-29T05:18:47.272Z,9.70
2022-07-29T05:21:33.669Z,8.10
2022-07-29T05:24:20.158Z,11.35
2022-07-29T05:27:06.598Z,6.40
2022-07-29T05:29:53.213Z,7.03
2022-07-29T05:32:39.373Z,6.93
2022-07-29T05:35:25.713Z,7.45
2022-07-29T05:38:12.179Z,6.43
2022-07-29T05:41:00.136Z,7.85
2022-07-29T05:43:46.467Z,10.63
2022-07-29T05:46:32.974Z,9.02
2022-07-29T05:49:27.126Z,7.90
2022-07-29T05:52:14.290Z,7.47
2022-07-29T05:55:03.775Z,8.43
2022-07-29T05:57:49.853Z,7.70
2022-07-29T06:00:36.381Z,10.98
2022-07-29T06:03:22.510Z,6.78
2022-07-29T06:06:08.662Z,8.98
2022-07-29T06:08:55.270Z,8.93
2022-07-29T06:11:41.748Z,7.47
2022-07-29T06:14:29.273Z,7.47
2022-07-29T06:17:17.366Z,7.97
2022-07-29T06:20:04.788Z,7.65
2022-07-29T06:22:50.987Z,9.02
2022-07-29T06:25:37.736Z,11.80
2022-07-29T06:28:24.084Z,9.02
2022-07-29T06:31:10.750Z,10.43
2022-07-29T06:33:57.106Z,6.47
2022-07-29T06:36:43.495Z,6.25
2022-07-29T06:39:29.731Z,8.75
2022-07-29T06:42:16.634Z,7.93
2022-07-29T06:45:06.208Z,9.85
2022-07-29T06:47:55.872Z,10.13
2022-07-29T06:50:42.150Z,9.38
2022-07-29T06:53:28.721Z,10.27
2022-07-29T06:56:14.976Z,10.25
2022-07-29T06:59:01.513Z,9.82
2022-07-29T07:01:47.918Z,9.82
2022-07-29T07:04:34.476Z,10.00
2022-07-29T07:07:20.392Z,12.35
2022-07-29T07:10:07.712Z,14.18
2022-07-29T07:12:53.614Z,8.18
2022-07-29T07:15:40.310Z,9.23
2022-07-29T07:18:26.556Z,7.53
2022-07-29T07:21:19.155Z,10.05
2022-07-29T07:24:05.951Z,14.00
2022-07-29T07:26:52.364Z,9.27
2022-07-29T07:29:42.509Z,9.18
2022-07-29T07:32:30.852Z,9.88
2022-07-29T07:35:17.269Z,8.82
2022-07-29T07:38:03.831Z,11.35
2022-07-29T07:40:49.864Z,6.75
2022-07-29T07:43:36.119Z,10.77
2022-07-29T07:46:22.544Z,11.40
2022-07-29T07:49:09.044Z,7.55
2022-07-29T07:51:55.177Z,10.38
2022-07-29T07:54:41.473Z,8.07
2022-07-29T07:57:28.026Z,8.35
2022-07-29T08:00:16.368Z,12.75
2022-07-29T08:03:06.232Z,11.80
2022-07-29T08:06:04.804Z,11.90
2022-07-29T08:08:51.974Z,10.35
2022-07-29T08:11:37.863Z,9.27
2022-07-29T08:14:38.869Z,10.55
2022-07-29T08:17:25.166Z,9.15
2022-07-29T08:20:11.862Z,10.75
2022-07-29T08:22:57.827Z,8.02
2022-07-29T08:25:43.988Z,10.50
2022-07-29T08:28:29.981Z,8.13
2022-07-29T08:31:16.611Z,10.43
2022-07-29T08:34:03.586Z,8.88
2022-07-29T08:36:50.388Z,9.68
2022-07-29T08:39:37.737Z,10.13
2022-07-29T08:42:23.892Z,8.85
2022-07-29T08:45:10.031Z,7.60
2022-07-29T08:47:56.501Z,8.75
2022-07-29T08:50:46.299Z,9.63
2022-07-29T08:53:33.112Z,8.30
2022-07-29T08:56:20.330Z,8.95
2022-07-29T08:59:07.022Z,15.90
2022-07-29T09:01:55.571Z,9.13
2022-07-29T09:04:42.526Z,10.02
2022-07-29T09:07:34.853Z,9.68
2022-07-29T09:10:21.135Z,11.82
2022-07-29T09:13:07.489Z,8.98
2022-07-29T09:15:53.916Z,8.85
2022-07-29T09:18:43.822Z,9.50
2022-07-29T09:21:59.847Z,11.02
2022-07-29T09:24:48.264Z,7.90
2022-07-29T09:27:35.317Z,10.27
2022-07-29T09:30:25.583Z,11.95
2022-07-29T09:33:18.658Z,11.32
2022-07-29T09:36:09.384Z,10.18
2022-07-29T09:39:04.618Z,8.25
2022-07-29T09:41:55.746Z,9.65
2022-07-29T09:44:51.659Z,9.85
2022-07-29T09:47:50.107Z,7.40
2022-07-29T09:50:37.549Z,9.90
2022-07-29T09:53:34.206Z,8.85
2022-07-29T09:56:20.597Z,7.70
2022-07-29T09:59:07.607Z,9.43
2022-07-29T10:01:54.493Z,10.20
2022-07-29T10:04:42.235Z,6.70
2022-07-29T10:07:44.471Z,6.65
2022-07-29T10:10:34.766Z,8.20
2022-07-29T10:13:20.812Z,6.15
2022-07-29T10:16:07.667Z,5.15
2022-07-29T10:18:53.757Z,6.37
2022-07-29T10:21:44.199Z,8.20
2022-07-29T10:24:31.737Z,6.40
2022-07-29T10:27:18.411Z,8.07
2022-07-29T10:30:05.658Z,9.15
2022-07-29T10:32:56.411Z,7.60
2022-07-29T10:38:41.080Z,6.65
2022-07-29T10:41:50.380Z,6.43
2022-07-29T10:44:41.792Z,7.78
2022-07-29T10:47:28.391Z,7.05
2022-07-29T10:50:17.198Z,8.02
2022-07-29T10:53:04.935Z,6.15
2022-07-29T10:55:55.819Z,9.57
2022-07-29T10:58:42.556Z,7.55
2022-07-29T11:01:39.090Z,4.72
2022-07-29T11:04:44.394Z,9.63
2022-07-29T11:07:45.771Z,11.48
2022-07-29T11:10:32.611Z,4.65
2022-07-29T11:13:44.148Z,6.25
2022-07-29T11:17:00.755Z,9.07
2022-07-29T11:19:52.089Z,8.10
2022-07-29T11:22:43.154Z,6.37
2022-07-29T11:25:50.811Z,6.93
2022-07-29T11:28:43.588Z,8.10
2022-07-29T11:31:51.638Z,6.55
2022-07-29T11:34:41.637Z,7.20
2022-07-29T11:37:29.345Z,8.95
2022-07-29T11:40:18.502Z,7.32
2022-07-29T11:43:07.417Z,6.65
2022-07-29T11:45:54.550Z,7.43
2022-07-29T11:48:44.424Z,7.75
2022-07-29T11:51:32.999Z,17.60
2022-07-29T11:54:27.731Z,11.18
2022-07-29T11:57:14.070Z,7.03
2022-07-29T12:00:04.905Z,8.13
2022-07-29T12:02:57.845Z,4.95
2022-07-29T12:08:53.328Z,21.27
2022-07-29T12:11:39.911Z,6.45
2022-07-29T12:14:29.462Z,6.20
2022-07-29T12:17:32.823Z,5.62
2022-07-29T12:20:28.030Z,7.78
2022-07-29T12:23:17.363Z,5.70
2022-07-29T12:26:07.659Z,5.78
2022-07-29T12:28:56.811Z,6.10
2022-07-29T12:31:45.577Z,5.60
2022-07-29T12:34:31.928Z,7.68
2022-07-29T12:37:18.520Z,15.23
2022-07-29T12:40:08.463Z,15.88
2022-07-29T12:43:13.355Z,13.57
2022-07-29T12:46:13.652Z,16.98
2022-07-29T12:51:45.924Z,5.90
2022-07-29T12:54:32.159Z,9.15
2022-07-29T12:57:19.980Z,5.82
2022-07-29T13:00:12.050Z,8.55
2022-07-29T13:03:00.428Z,5.10
2022-07-29T13:05:49.416Z,7.20
2022-07-29T13:08:35.942Z,8.07
2022-07-29T13:11:30.314Z,5.07
2022-07-29T13:14:34.128Z,6.15
2022-07-29T13:17:23.993Z,4.62
2022-07-29T13:20:13.675Z,6.30
2022-07-29T13:23:01.415Z,13.77
2022-07-29T13:25:47.392Z,6.35
2022-07-29T13:28:33.846Z,5.70
2022-07-29T13:31:20.415Z,8.25
2022-07-29T13:34:07.053Z,6.87
2022-07-29T13:36:53.526Z,5.45
2022-07-29T13:39:40.805Z,11.35
2022-07-29T13:42:27.302Z,9.25
2022-07-29T13:45:13.715Z,7.80
2022-07-29T13:48:00.127Z,4.95
2022-07-29T13:50:47.598Z,3.97
2022-07-29T13:53:33.782Z,5.90
2022-07-29T13:56:20.745Z,7.07
2022-07-29T13:59:06.430Z,4.82
2022-07-29T14:01:52.969Z,5.85
2022-07-29T14:04:39.835Z,6.85
2022-07-29T14:07:25.816Z,5.00
2022-07-29T14:10:12.669Z,5.95
2022-07-29T14:12:59.697Z,6.40
2022-07-29T14:15:45.993Z,5.28
2022-07-29T14:18:32.306Z,4.93
2022-07-29T14:21:18.710Z,7.68
2022-07-29T14:24:16.292Z,6.90
2022-07-29T14:27:08.963Z,5.10
2022-07-29T14:29:55.523Z,8.68
2022-07-29T14:32:41.898Z,6.50
2022-07-29T14:35:28.179Z,6.65
2022-07-29T14:38:14.546Z,6.55
2022-07-29T14:41:01.142Z,7.40
2022-07-29T14:43:48.264Z,4.78
2022-07-29T14:46:34.937Z,5.12
2022-07-29T14:49:21.116Z,6.05
2022-07-29T14:52:07.653Z,5.68
2022-07-29T14:54:53.902Z,5.82
2022-07-29T14:57:40.204Z,4.22
2022-07-29T15:00:26.940Z,6.40
2022-07-29T15:03:13.199Z,6.95
2022-07-29T15:06:10.705Z,7.93
2022-07-29T15:08:57.127Z,5.18
2022-07-29T15:11:43.882Z,4.90
2022-07-29T15:14:30.159Z,9.55
2022-07-29T15:17:16.497Z,7.82
2022-07-29T15:20:03.116Z,7.05
2022-07-29T15:22:49.685Z,7.05
2022-07-29T15:25:37.315Z,5.45
2022-07-29T15:28:23.915Z,6.40
2022-07-29T15:31:10.256Z,6.53
2022-07-29T15:33:59.417Z,7.35
2022-07-29T15:36:52.603Z,7.75
2022-07-29T15:39:39.711Z,6.85
2022-07-29T15:42:26.094Z,9.20
2022-07-29T15:45:12.564Z,7.32
2022-07-29T15:47:58.764Z,7.05
2022-07-29T15:50:47.178Z,5.40
2022-07-29T15:53:35.188Z,4.97
2022-07-29T15:56:21.845Z,7.22
2022-07-29T15:59:08.137Z,6.15
2022-07-29T16:01:54.826Z,6.47
2022-07-29T16:04:41.654Z,7.43
2022-07-29T16:07:31.263Z,7.68
2022-07-29T16:10:19.195Z,10.55
2022-07-29T16:13:04.935Z,4.97
2022-07-29T16:16:02.442Z,9.68
2022-07-29T16:18:49.173Z,9.10
2022-07-29T16:21:35.972Z,7.50
2022-07-29T16:24:22.208Z,4.93
2022-07-29T16:27:08.688Z,4.62
2022-07-29T16:29:55.705Z,8.45
2022-07-29T16:32:42.228Z,6.93
2022-07-29T16:35:39.584Z,5.20
2022-07-29T16:38:26.897Z,8.35
2022-07-29T16:41:13.667Z,8.85
2022-07-29T16:44:00.363Z,5.55
2022-07-29T16:46:46.536Z,6.15
2022-07-29T16:49:34.955Z,6.25
2022-07-29T16:52:21.230Z,5.93
2022-07-29T16:55:21.649Z,7.50
2022-07-29T17:00:55.188Z,5.72
2022-07-29T17:04:01.297Z,5.78
2022-07-29T17:06:49.603Z,5.70
2022-07-29T17:09:35.730Z,8.82
2022-07-29T17:12:22.046Z,8.23
2022-07-29T17:15:10.612Z,6.68
2022-07-29T17:17:57.336Z,9.80
2022-07-29T17:20:43.507Z,8.52
2022-07-29T17:23:29.839Z,8.40
2022-07-29T17:26:16.707Z,9.75
2022-07-29T17:29:03.235Z,9.82
2022-07-29T17:31:49.042Z,14.27
2022-07-29T17:34:39.581Z,11.15
2022-07-29T17:37:25.772Z,15.63
2022-07-29T17:40:12.211Z,13.98
2022-07-29T17:49:18.569Z,15.68
2022-07-29T17:52:05.373Z,14.35
2022-07-29T17:54:51.765Z,17.83
2022-07-29T17:57:38.149Z,14.85
2022-07-29T18:00:24.954Z,15.77
2022-07-29T18:03:11.567Z,17.83
2022-07-29T18:05:57.865Z,12.73
2022-07-29T18:08:47.907Z,11.55
2022-07-29T18:11:34.251Z,12.00
2022-07-29T18:14:20.583Z,12.75
2022-07-29T18:17:06.910Z,16.17
2022-07-29T18:19:53.244Z,13.70
2022-07-29T18:22:39.652Z,12.55
2022-07-29T18:25:26.642Z,15.73
2022-07-29T18:28:12.721Z,12.77
2022-07-29T18:31:00.143Z,15.00
2022-07-29T18:33:46.405Z,14.63
2022-07-29T18:36:32.857Z,15.35
2022-07-29T18:39:21.150Z,13.57
2022-07-29T18:42:07.860Z,22.73
2022-07-29T18:44:54.855Z,27.13
2022-07-29T18:47:41.521Z,22.92
2022-07-29T18:50:33.454Z,16.12
2022-07-29T18:53:19.715Z,13.60
2022-07-29T18:56:06.149Z,11.57
2022-07-29T18:58:52.486Z,13.60
2022-07-29T19:01:38.927Z,14.18
2022-07-29T19:04:26.171Z,10.50
2022-07-29T19:07:12.181Z,10.10
2022-07-29T19:09:58.458Z,15.23
2022-07-29T19:12:44.551Z,16.10
2022-07-29T19:15:30.899Z,16.90
2022-07-29T19:18:18.163Z,10.25
2022-07-29T19:21:04.624Z,10.27
2022-07-29T19:24:01.790Z,10.07
2022-07-29T19:26:54.412Z,9.98
2022-07-29T19:29:40.778Z,8.82
2022-07-29T19:32:27.192Z,10.05
2022-07-29T19:35:28.290Z,9.82
2022-07-29T19:38:15.232Z,14.02
2022-07-29T19:41:01.492Z,11.85
2022-07-29T19:43:50.887Z,15.52
2022-07-29T19:46:38.708Z,18.85
2022-07-29T19:49:25.176Z,8.75
2022-07-29T19:52:11.245Z,10.60
2022-07-29T19:54:58.881Z,11.68
2022-07-29T19:57:46.295Z,11.80
2022-07-29T20:00:32.857Z,13.85
2022-07-29T20:03:19.155Z,10.80
2022-07-29T20:06:06.012Z,9.85
2022-07-29T20:08:56.774Z,7.87
2022-07-29T20:11:44.769Z,13.48
2022-07-29T20:14:31.259Z,7.40
2022-07-29T20:17:22.462Z,12.37
2022-07-29T20:22:55.408Z,9.07
2022-07-29T20:25:42.217Z,14.60
2022-07-29T20:28:29.189Z,9.00
2022-07-29T20:31:16.737Z,12.50
2022-07-29T20:34:03.498Z,8.52
2022-07-29T20:36:50.698Z,8.10
2022-07-29T20:39:37.444Z,7.37
2022-07-29T20:42:24.038Z,10.40
2022-07-29T20:45:10.514Z,8.85
2022-07-29T20:47:57.153Z,7.22
2022-07-29T20:50:44.980Z,8.93
2022-07-29T20:53:31.458Z,9.73
2022-07-29T20:56:17.738Z,9.90
2022-07-29T20:59:04.473Z,9.80
2022-07-29T21:01:50.645Z,6.55
2022-07-29T21:04:37.198Z,6.62
2022-07-29T21:07:23.333Z,6.10
2022-07-29T21:10:09.831Z,8.60
2022-07-29T21:12:56.184Z,9.68
2022-07-29T21:15:45.955Z,9.65
2022-07-29T21:18:34.338Z,8.43
2022-07-29T21:21:20.959Z,8.15
2022-07-29T21:24:08.129Z,6.50
2022-07-29T21:27:21.497Z,7.12
2022-07-29T21:30:08.850Z,6.45
2022-07-29T21:32:55.564Z,8.48
2022-07-29T21:36:06.885Z,6.90
2022-07-29T21:38:48.830Z,7.90
2022-07-29T21:41:34.764Z,7.80
2022-07-29T21:44:21.898Z,8.15
2022-07-29T21:47:09.297Z,7.62
2022-07-29T21:49:55.781Z,6.57
2022-07-29T21:52:42.080Z,10.20
2022-07-29T21:55:28.976Z,8.02
2022-07-29T21:58:18.106Z,8.00
2022-07-29T22:01:04.878Z,10.50
2022-07-29T22:03:51.518Z,5.57
2022-07-29T22:06:37.732Z,7.20
2022-07-29T22:09:24.686Z,8.95
2022-07-29T22:12:11.141Z,7.28
2022-07-29T22:14:57.939Z,7.20
2022-07-29T22:17:43.934Z,6.03
2022-07-29T22:20:30.256Z,7.65
2022-07-29T22:23:16.799Z,9.13
2022-07-29T22:26:03.940Z,6.82
2022-07-29T22:28:49.969Z,8.73
2022-07-29T22:31:36.278Z,7.72
2022-07-29T22:34:22.675Z,7.37
2022-07-29T22:37:09.029Z,9.43
2022-07-29T22:39:55.271Z,8.98
2022-07-29T22:42:41.550Z,7.53
2022-07-29T22:45:28.065Z,7.82
2022-07-29T22:48:16.858Z,8.57
2022-07-29T22:51:03.187Z,7.85
2022-07-29T22:53:49.641Z,6.85
2022-07-29T22:56:36.777Z,8.02
2022-07-29T22:59:23.478Z,7.97
2022-07-29T23:02:09.605Z,7.12
2022-07-29T23:04:55.819Z,7.53
2022-07-29T23:07:42.096Z,9.15
2022-07-29T23:10:28.633Z,6.40
2022-07-29T23:13:14.940Z,6.82
2022-07-29T23:16:01.672Z,6.55
2022-07-29T23:18:48.245Z,7.55
2022-07-29T23:21:34.613Z,10.02
2022-07-29T23:24:21.084Z,7.90
2022-07-29T23:27:07.430Z,6.70
2022-07-29T23:29:53.817Z,6.25
2022-07-29T23:32:40.158Z,5.97
2022-07-29T23:35:26.962Z,7.37
2022-07-29T23:38:13.622Z,7.07
2022-07-29T23:41:01.663Z,10.05
2022-07-29T23:43:50.994Z,6.78
2022-07-29T23:46:37.397Z,8.90
2022-07-29T23:49:23.619Z,7.85
2022-07-29T23:52:09.957Z,9.80
2022-07-29T23:54:56.320Z,8.43
2022-07-29T23:58:03.075Z,8.60
